createdAt,value
2022-09-24T00:00:19.345Z,20.09
2022-09-24T00:02:20.680Z,20.09
2022-09-24T00:04:24.378Z,20.08
2022-09-24T00:06:25.658Z,20.07
2022-09-24T00:08:26.988Z,20.06
2022-09-24T00:10:28.287Z,20.06
2022-09-24T00:12:29.608Z,20.05
2022-09-24T00:14:30.867Z,20.03
2022-09-24T00:16:33.825Z,20.03
2022-09-24T00:18:35.356Z,20.00
2022-09-24T00:20:36.675Z,19.99
2022-09-24T00:22:38.108Z,20.01
2022-09-24T00:24:58.298Z,19.99
2022-09-24T00:26:59.618Z,19.98
2022-09-24T00:29:00.933Z,19.99
2022-09-24T00:31:02.283Z,20.02
2022-09-24T00:33:03.591Z,20.03
2022-09-24T00:35:04.870Z,20.02
2022-09-24T00:37:06.187Z,20.00
2022-09-24T00:39:07.478Z,20.01
2022-09-24T00:41:08.784Z,20.00
2022-09-24T00:43:10.055Z,19.99
2022-09-24T00:45:11.374Z,20.00
2022-09-24T00:47:12.650Z,20.00
2022-09-24T00:49:13.906Z,19.98
2022-09-24T00:51:15.182Z,19.98
2022-09-24T00:53:16.508Z,19.98
2022-09-24T00:55:19.799Z,20.00
2022-09-24T00:57:21.116Z,19.99
2022-09-24T00:59:23.933Z,19.99
2022-09-24T01:01:25.355Z,20.01
2022-09-24T01:03:26.748Z,20.01
2022-09-24T01:05:28.069Z,20.04
2022-09-24T01:07:29.343Z,20.13
2022-09-24T01:09:30.655Z,20.20
2022-09-24T01:11:32.007Z,20.14
2022-09-24T01:13:33.316Z,20.14
2022-09-24T01:15:34.584Z,20.11
2022-09-24T01:17:35.875Z,20.08
2022-09-24T01:19:37.551Z,20.06
2022-09-24T01:21:38.887Z,20.04
2022-09-24T01:23:42.753Z,20.02
2022-09-24T01:25:46.262Z,20.02
2022-09-24T01:27:47.544Z,20.00
2022-09-24T01:29:50.056Z,19.98
2022-09-24T01:31:51.381Z,19.98
2022-09-24T01:33:55.819Z,19.97
2022-09-24T01:35:57.074Z,19.97
2022-09-24T01:37:58.334Z,19.97
2022-09-24T01:39:59.586Z,19.96
2022-09-24T01:42:00.879Z,19.93
2022-09-24T01:44:05.127Z,19.93
2022-09-24T01:46:06.946Z,19.93
2022-09-24T01:48:08.286Z,19.91
2022-09-24T01:50:09.614Z,19.91
2022-09-24T01:52:10.882Z,19.89
2022-09-24T01:54:12.239Z,19.90
2022-09-24T01:56:13.519Z,19.90
2022-09-24T01:58:14.827Z,19.92
2022-09-24T02:00:16.213Z,19.91
2022-09-24T02:02:18.015Z,19.91
2022-09-24T02:04:19.355Z,19.92
2022-09-24T02:06:20.627Z,19.90
2022-09-24T02:08:22.245Z,19.90
2022-09-24T02:10:23.532Z,19.90
2022-09-24T02:12:29.630Z,19.88
2022-09-24T02:14:30.972Z,19.89
2022-09-24T02:16:32.272Z,19.86
2022-09-24T02:18:33.587Z,19.88
2022-09-24T02:20:34.907Z,19.89
2022-09-24T02:22:36.368Z,19.88
2022-09-24T02:24:37.655Z,19.88
2022-09-24T02:26:38.984Z,19.88
2022-09-24T02:28:41.955Z,19.87
2022-09-24T02:30:44.013Z,19.86
2022-09-24T02:32:45.286Z,19.86
2022-09-24T02:34:47.205Z,19.85
2022-09-24T02:36:48.545Z,19.89
2022-09-24T02:38:49.823Z,19.90
2022-09-24T02:40:51.279Z,19.91
2022-09-24T02:42:52.677Z,19.91
2022-09-24T02:44:57.375Z,19.90
2022-09-24T02:46:58.817Z,19.90
2022-09-24T02:49:00.188Z,19.90
2022-09-24T02:51:04.154Z,19.89
2022-09-24T02:53:05.471Z,19.89
2022-09-24T02:55:06.799Z,19.17
2022-09-24T02:57:08.081Z,19.88
2022-09-24T02:59:09.396Z,19.87
2022-09-24T03:01:10.678Z,19.86
2022-09-24T03:03:12.003Z,19.86
2022-09-24T03:05:13.366Z,19.83
2022-09-24T03:07:14.783Z,19.82
2022-09-24T03:09:16.128Z,19.80
2022-09-24T03:11:18.850Z,19.81
2022-09-24T03:13:20.751Z,19.80
2022-09-24T03:15:22.029Z,19.81
2022-09-24T03:17:23.304Z,19.79
2022-09-24T03:19:24.588Z,19.77
2022-09-24T03:21:25.924Z,19.77
2022-09-24T03:23:27.199Z,19.76
2022-09-24T03:25:28.524Z,19.75
2022-09-24T03:27:29.820Z,19.75
2022-09-24T03:29:49.877Z,19.74
2022-09-24T03:31:51.243Z,19.73
2022-09-24T03:33:53.000Z,19.72
2022-09-24T03:35:54.267Z,19.71
2022-09-24T03:37:55.535Z,19.71
2022-09-24T03:39:56.816Z,19.70
2022-09-24T03:41:58.139Z,19.69
2022-09-24T03:43:59.436Z,18.98
2022-09-24T03:46:00.816Z,19.74
2022-09-24T03:48:02.093Z,19.78
2022-09-24T03:50:03.418Z,19.86
2022-09-24T03:52:04.709Z,19.86
2022-09-24T03:54:06.091Z,19.83
2022-09-24T03:58:08.732Z,19.82
2022-09-24T04:00:10.022Z,19.81
2022-09-24T04:02:11.339Z,19.82
2022-09-24T04:04:15.607Z,19.82
2022-09-24T04:06:20.701Z,19.84
2022-09-24T04:08:25.991Z,19.85
2022-09-24T04:10:28.116Z,19.91
2022-09-24T04:12:29.665Z,19.90
2022-09-24T04:14:30.984Z,19.90
2022-09-24T04:16:32.378Z,19.91
2022-09-24T04:18:38.304Z,19.92
2022-09-24T04:20:40.589Z,19.92
2022-09-24T04:22:41.863Z,19.95
2022-09-24T04:24:43.174Z,19.96
2022-09-24T04:26:44.455Z,19.97
2022-09-24T04:28:45.751Z,19.97
2022-09-24T04:30:47.060Z,19.97
2022-09-24T04:32:49.046Z,19.98
2022-09-24T04:34:50.326Z,19.97
2022-09-24T04:36:52.147Z,19.96
2022-09-24T04:38:53.431Z,19.95
2022-09-24T04:40:54.765Z,19.98
2022-09-24T04:42:56.144Z,19.96
2022-09-24T04:44:57.419Z,19.93
2022-09-24T04:47:02.276Z,19.90
2022-09-24T04:49:03.623Z,19.88
2022-09-24T04:51:05.826Z,19.86
2022-09-24T04:53:07.625Z,19.85
2022-09-24T04:55:08.910Z,19.86
2022-09-24T04:57:10.184Z,19.84
2022-09-24T04:59:11.566Z,19.83
2022-09-24T05:01:13.449Z,19.82
2022-09-24T05:03:15.520Z,19.86
2022-09-24T05:05:16.854Z,19.84
2022-09-24T05:07:18.148Z,19.86
2022-09-24T05:09:19.418Z,19.83
2022-09-24T05:11:20.679Z,19.81
2022-09-24T05:13:21.962Z,19.79
2022-09-24T05:15:23.445Z,19.77
2022-09-24T05:17:24.729Z,19.76
2022-09-24T05:19:26.025Z,19.76
2022-09-24T05:21:27.523Z,19.75
2022-09-24T05:23:28.815Z,19.77
2022-09-24T05:25:30.093Z,19.77
2022-09-24T05:27:31.374Z,19.82
2022-09-24T05:29:32.671Z,19.83
2022-09-24T05:31:34.013Z,19.83
2022-09-24T05:33:36.159Z,19.85
2022-09-24T05:35:37.482Z,19.89
2022-09-24T05:37:39.224Z,19.91
2022-09-24T05:39:40.494Z,19.93
2022-09-24T05:41:41.795Z,19.96
2022-09-24T05:43:43.074Z,19.98
2022-09-24T05:45:44.580Z,20.01
2022-09-24T05:47:45.906Z,20.06
2022-09-24T05:49:47.203Z,20.05
2022-09-24T05:51:48.838Z,20.07
2022-09-24T05:53:50.484Z,20.05
2022-09-24T05:55:51.799Z,20.08
2022-09-24T05:57:53.246Z,20.06
2022-09-24T05:59:54.623Z,20.04
2022-09-24T06:01:55.977Z,20.04
2022-09-24T06:03:57.275Z,20.01
2022-09-24T06:06:02.325Z,19.98
2022-09-24T06:08:03.665Z,19.93
2022-09-24T06:10:05.381Z,19.91
2022-09-24T06:12:07.134Z,19.89
2022-09-24T06:14:09.107Z,19.88
2022-09-24T06:16:10.665Z,19.87
2022-09-24T06:18:12.190Z,19.86
2022-09-24T06:20:13.895Z,19.87
2022-09-24T06:22:15.202Z,19.89
2022-09-24T06:24:16.474Z,20.00
2022-09-24T06:26:18.948Z,19.92
2022-09-24T06:28:20.223Z,19.82
2022-09-24T06:30:21.474Z,19.73
2022-09-24T06:32:22.751Z,19.80
2022-09-24T06:34:24.107Z,19.78
2022-09-24T06:36:25.365Z,19.78
2022-09-24T06:38:26.677Z,19.77
2022-09-24T06:40:32.533Z,19.77
2022-09-24T06:42:38.190Z,19.77
2022-09-24T06:44:39.512Z,19.76
2022-09-24T06:46:40.839Z,19.76
2022-09-24T06:48:42.653Z,19.76
2022-09-24T06:50:43.978Z,19.75
2022-09-24T06:52:45.271Z,19.80
2022-09-24T06:54:46.591Z,19.79
2022-09-24T06:56:47.864Z,19.76
2022-09-24T06:58:49.183Z,19.74
2022-09-24T07:00:50.491Z,19.76
2022-09-24T07:02:51.844Z,19.76
2022-09-24T07:04:53.343Z,19.82
2022-09-24T07:07:13.499Z,20.03
2022-09-24T07:09:14.827Z,20.06
2022-09-24T07:11:16.103Z,20.33
2022-09-24T07:13:17.411Z,20.43
2022-09-24T07:15:18.682Z,20.26
2022-09-24T07:17:19.954Z,20.15
2022-09-24T07:19:21.262Z,20.08
2022-09-24T07:21:22.627Z,20.05
2022-09-24T07:23:23.926Z,20.02
2022-09-24T07:25:25.231Z,20.00
2022-09-24T07:27:26.530Z,19.98
2022-09-24T07:29:27.818Z,19.98
2022-09-24T07:31:29.204Z,19.94
2022-09-24T07:33:30.555Z,19.92
2022-09-24T07:35:31.835Z,19.89
2022-09-24T07:37:33.254Z,19.87
2022-09-24T07:39:34.563Z,19.83
2022-09-24T07:41:41.355Z,19.81
2022-09-24T07:43:43.866Z,19.76
2022-09-24T07:45:45.290Z,19.73
2022-09-24T07:47:46.564Z,19.71
2022-09-24T07:49:47.996Z,19.68
2022-09-24T07:51:49.647Z,19.66
2022-09-24T07:53:50.970Z,19.67
2022-09-24T07:55:52.702Z,19.64
2022-09-24T07:57:54.032Z,19.63
2022-09-24T07:59:55.349Z,19.60
2022-09-24T08:01:57.505Z,19.61
2022-09-24T08:03:59.595Z,19.60
2022-09-24T08:06:01.794Z,19.61
2022-09-24T08:08:03.078Z,19.61
2022-09-24T08:10:04.356Z,19.62
2022-09-24T08:12:05.647Z,19.64
2022-09-24T08:14:07.243Z,19.64
2022-09-24T08:16:08.629Z,19.65
2022-09-24T08:18:09.977Z,19.67
2022-09-24T08:20:11.975Z,19.67
2022-09-24T08:22:14.209Z,19.70
2022-09-24T08:24:15.956Z,19.72
2022-09-24T08:26:17.245Z,19.74
2022-09-24T08:28:19.737Z,19.82
2022-09-24T08:30:21.900Z,19.60
2022-09-24T08:32:23.396Z,19.50
2022-09-24T08:34:25.132Z,19.42
2022-09-24T08:36:28.020Z,19.55
2022-09-24T08:38:29.320Z,19.71
2022-09-24T08:40:30.840Z,19.83
2022-09-24T08:42:33.114Z,19.92
2022-09-24T08:44:53.327Z,20.17
2022-09-24T08:47:13.127Z,20.19
2022-09-24T08:49:16.302Z,20.22
2022-09-24T08:51:20.771Z,20.27
2022-09-24T08:53:22.078Z,20.40
2022-09-24T08:55:23.411Z,20.27
2022-09-24T08:57:24.710Z,20.17
2022-09-24T08:59:26.190Z,20.23
2022-09-24T09:01:27.559Z,20.27
2022-09-24T09:03:29.156Z,20.31
2022-09-24T09:05:30.419Z,20.32
2022-09-24T09:07:31.884Z,20.33
2022-09-24T09:09:33.148Z,20.33
2022-09-24T09:11:34.503Z,20.35
2022-09-24T09:13:35.808Z,20.38
2022-09-24T09:15:37.168Z,20.40
2022-09-24T09:17:42.168Z,20.43
2022-09-24T09:19:43.427Z,20.43
2022-09-24T09:21:45.957Z,20.47
2022-09-24T09:23:47.226Z,20.49
2022-09-24T09:25:51.905Z,20.40
2022-09-24T09:27:53.238Z,20.31
2022-09-24T09:29:54.572Z,20.23
2022-09-24T09:31:56.715Z,20.20
2022-09-24T09:34:00.703Z,20.18
2022-09-24T09:36:01.976Z,20.13
2022-09-24T09:38:03.248Z,20.12
2022-09-24T09:40:10.058Z,20.12
2022-09-24T09:42:11.459Z,20.12
2022-09-24T09:44:12.739Z,20.09
2022-09-24T09:46:14.327Z,20.06
2022-09-24T09:48:16.925Z,20.02
2022-09-24T09:50:18.260Z,19.99
2022-09-24T09:52:20.607Z,19.96
2022-09-24T09:54:21.888Z,19.92
2022-09-24T09:56:23.279Z,19.90
2022-09-24T09:58:24.763Z,19.88
2022-09-24T10:00:26.737Z,19.86
2022-09-24T10:02:28.179Z,19.83
2022-09-24T10:04:29.666Z,19.81
2022-09-24T10:06:31.864Z,19.80
2022-09-24T10:08:33.144Z,19.78
2022-09-24T10:10:34.424Z,19.77
2022-09-24T10:12:35.694Z,19.76
2022-09-24T10:14:37.014Z,19.75
2022-09-24T10:16:38.340Z,19.75
2022-09-24T10:18:39.831Z,19.77
2022-09-24T10:20:41.132Z,19.81
2022-09-24T10:22:42.417Z,19.82
2022-09-24T10:24:43.685Z,19.80
2022-09-24T10:26:45.731Z,19.76
2022-09-24T10:29:05.690Z,19.74
2022-09-24T10:31:06.986Z,19.71
2022-09-24T10:33:08.867Z,19.70
2022-09-24T10:35:10.151Z,19.69
2022-09-24T10:37:11.426Z,19.69
2022-09-24T10:39:12.800Z,19.72
2022-09-24T10:41:14.175Z,19.74
2022-09-24T10:43:15.502Z,19.74
2022-09-24T10:45:16.781Z,19.74
2022-09-24T10:47:18.121Z,19.72
2022-09-24T10:49:19.426Z,19.70
2022-09-24T10:51:24.143Z,19.69
2022-09-24T10:53:27.907Z,18.94
2022-09-24T10:55:29.174Z,19.63
2022-09-24T10:57:31.239Z,19.60
2022-09-24T10:59:32.579Z,19.58
2022-09-24T11:01:34.234Z,19.58
2022-09-24T11:03:36.353Z,19.56
2022-09-24T11:05:37.630Z,19.55
2022-09-24T11:07:38.962Z,19.54
2022-09-24T11:09:40.274Z,19.54
2022-09-24T11:11:41.596Z,19.54
2022-09-24T11:13:42.942Z,19.55
2022-09-24T11:15:44.262Z,19.56
2022-09-24T11:17:45.992Z,19.57
2022-09-24T11:19:47.272Z,19.65
2022-09-24T11:21:48.742Z,19.71
2022-09-24T11:23:50.042Z,19.68
2022-09-24T11:25:51.731Z,19.67
2022-09-24T11:27:52.995Z,19.69
2022-09-24T11:29:54.285Z,19.69
2022-09-24T11:31:55.589Z,19.68
2022-09-24T11:33:56.868Z,19.70
2022-09-24T11:35:58.179Z,19.80
2022-09-24T11:38:01.049Z,19.96
2022-09-24T11:40:03.013Z,20.07
2022-09-24T11:42:04.275Z,20.17
2022-09-24T11:44:05.837Z,20.24
2022-09-24T11:46:07.199Z,20.31
2022-09-24T11:48:08.538Z,20.36
2022-09-24T11:50:11.156Z,20.38
2022-09-24T11:52:12.625Z,20.38
2022-09-24T11:54:13.923Z,20.36
2022-09-24T11:56:15.269Z,20.38
2022-09-24T11:58:16.900Z,20.44
2022-09-24T12:00:18.252Z,20.49
2022-09-24T12:02:19.634Z,20.49
2022-09-24T12:04:21.139Z,20.50
2022-09-24T12:06:22.424Z,20.50
2022-09-24T12:08:27.675Z,20.50
2022-09-24T12:10:29.854Z,20.53
2022-09-24T12:12:31.279Z,20.54
2022-09-24T12:14:32.981Z,20.56
2022-09-24T12:16:34.314Z,20.56
2022-09-24T12:18:35.647Z,20.56
2022-09-24T12:20:36.919Z,20.58
2022-09-24T12:22:38.198Z,20.61
2022-09-24T12:24:39.467Z,20.63
2022-09-24T12:26:40.760Z,20.62
2022-09-24T12:29:00.528Z,20.61
2022-09-24T12:31:20.450Z,20.62
2022-09-24T12:33:21.778Z,20.62
2022-09-24T12:35:23.727Z,20.63
2022-09-24T12:37:25.230Z,20.61
2022-09-24T12:39:26.792Z,20.63
2022-09-24T12:41:28.114Z,20.63
2022-09-24T12:43:29.872Z,20.66
2022-09-24T12:45:31.195Z,20.68
2022-09-24T12:47:33.277Z,20.68
2022-09-24T12:49:34.583Z,20.70
2022-09-24T12:51:35.913Z,20.71
2022-09-24T12:53:37.333Z,20.71
2022-09-24T12:55:39.096Z,20.72
2022-09-24T12:57:40.375Z,20.73
2022-09-24T12:59:41.696Z,20.72
2022-09-24T13:01:43.137Z,20.71
2022-09-24T13:03:47.318Z,20.69
2022-09-24T13:05:48.951Z,20.70
2022-09-24T13:07:50.255Z,20.70
2022-09-24T13:09:51.691Z,20.67
2022-09-24T13:11:53.226Z,20.57
2022-09-24T13:13:54.531Z,20.44
2022-09-24T13:15:55.820Z,20.38
2022-09-24T13:17:57.920Z,20.46
2022-09-24T13:19:59.255Z,20.49
2022-09-24T13:22:00.604Z,20.42
2022-09-24T13:24:01.904Z,20.33
2022-09-24T13:26:04.914Z,20.21
2022-09-24T13:28:06.268Z,20.13
2022-09-24T13:30:07.595Z,20.07
2022-09-24T13:32:08.867Z,20.02
2022-09-24T13:34:12.524Z,19.99
2022-09-24T13:36:13.954Z,19.96
2022-09-24T13:38:15.252Z,19.98
2022-09-24T13:40:16.597Z,19.98
2022-09-24T13:42:18.000Z,19.95
2022-09-24T13:44:19.298Z,19.90
2022-09-24T13:46:20.897Z,19.95
2022-09-24T13:48:22.305Z,20.10
2022-09-24T13:50:23.745Z,20.16
2022-09-24T13:52:25.031Z,20.15
2022-09-24T13:54:26.354Z,20.23
2022-09-24T13:56:27.631Z,20.32
2022-09-24T13:58:28.988Z,21.26
2022-09-24T14:00:31.333Z,21.72
2022-09-24T14:02:32.689Z,22.03
2022-09-24T14:04:33.983Z,22.06
2022-09-24T14:06:35.304Z,22.19
2022-09-24T14:08:36.554Z,22.13
2022-09-24T14:10:38.014Z,22.17
2022-09-24T14:12:39.314Z,22.14
2022-09-24T14:14:40.692Z,22.08
2022-09-24T14:16:41.980Z,22.20
2022-09-24T14:18:43.252Z,22.53
2022-09-24T14:20:44.592Z,22.40
2022-09-24T14:22:46.073Z,22.14
2022-09-24T14:24:47.341Z,21.60
2022-09-24T14:26:48.681Z,21.27
2022-09-24T14:28:49.954Z,21.10
2022-09-24T14:30:51.342Z,20.99
2022-09-24T14:32:52.714Z,20.92
2022-09-24T14:34:54.011Z,20.88
2022-09-24T14:36:55.339Z,20.86
2022-09-24T14:38:56.679Z,20.86
2022-09-24T14:40:57.998Z,20.84
2022-09-24T14:42:59.374Z,20.82
2022-09-24T14:45:00.702Z,20.79
2022-09-24T14:47:02.521Z,20.75
2022-09-24T14:49:03.805Z,20.74
2022-09-24T14:51:06.233Z,20.74
2022-09-24T14:53:07.545Z,20.73
2022-09-24T14:55:09.086Z,20.70
2022-09-24T14:57:11.463Z,20.69
2022-09-24T14:59:12.773Z,20.63
2022-09-24T15:01:14.199Z,20.59
2022-09-24T15:03:15.516Z,20.55
2022-09-24T15:05:16.950Z,20.55
2022-09-24T15:07:18.710Z,20.50
2022-09-24T15:09:19.991Z,20.44
2022-09-24T15:11:21.427Z,20.38
2022-09-24T15:13:22.719Z,20.35
2022-09-24T15:15:25.060Z,20.31
2022-09-24T15:17:27.215Z,20.27
2022-09-24T15:19:30.816Z,20.25
2022-09-24T15:21:32.098Z,20.23
2022-09-24T15:23:33.432Z,20.19
2022-09-24T15:25:34.790Z,20.17
2022-09-24T15:27:36.111Z,20.16
2022-09-24T15:29:37.426Z,20.12
2022-09-24T15:31:38.764Z,20.11
2022-09-24T15:33:40.069Z,20.09
2022-09-24T15:35:41.378Z,20.05
2022-09-24T15:37:42.699Z,20.02
2022-09-24T15:39:48.672Z,20.01
2022-09-24T15:41:49.927Z,20.01
2022-09-24T15:43:51.281Z,20.02
2022-09-24T15:45:52.573Z,20.00
2022-09-24T15:47:53.894Z,19.96
2022-09-24T15:49:55.180Z,19.94
2022-09-24T15:51:56.443Z,19.88
2022-09-24T15:53:57.724Z,19.82
2022-09-24T15:55:59.006Z,19.73
2022-09-24T15:58:01.952Z,20.08
2022-09-24T16:00:03.272Z,20.88
2022-09-24T16:02:05.372Z,21.32
2022-09-24T16:04:06.800Z,21.20
2022-09-24T16:06:08.245Z,21.70
2022-09-24T16:08:09.603Z,21.84
2022-09-24T16:10:10.892Z,21.20
2022-09-24T16:12:12.163Z,20.98
2022-09-24T16:14:13.463Z,20.83
2022-09-24T16:16:14.826Z,21.41
2022-09-24T16:18:16.347Z,21.91
2022-09-24T16:20:17.659Z,21.40
2022-09-24T16:22:20.657Z,20.78
2022-09-24T16:24:22.846Z,21.27
2022-09-24T16:26:24.478Z,20.97
2022-09-24T16:28:25.822Z,20.83
2022-09-24T16:30:27.113Z,20.79
2022-09-24T16:32:28.424Z,20.89
2022-09-24T16:34:29.735Z,20.82
2022-09-24T16:36:31.042Z,20.76
2022-09-24T16:38:32.330Z,20.79
2022-09-24T16:40:33.754Z,20.83
2022-09-24T16:42:35.152Z,20.87
2022-09-24T16:44:36.450Z,20.81
2022-09-24T16:46:37.790Z,20.64
2022-09-24T16:48:39.131Z,20.80
2022-09-24T16:50:40.696Z,20.89
2022-09-24T16:52:44.824Z,20.96
2022-09-24T16:54:46.094Z,20.96
2022-09-24T16:56:47.356Z,20.96
2022-09-24T16:58:48.733Z,20.96
2022-09-24T17:00:50.224Z,21.01
2022-09-24T17:02:51.625Z,21.01
2022-09-24T17:04:54.561Z,21.03
2022-09-24T17:06:55.838Z,21.04
2022-09-24T17:09:16.046Z,21.09
2022-09-24T17:11:17.328Z,21.07
2022-09-24T17:13:18.767Z,21.07
2022-09-24T17:15:20.727Z,20.83
2022-09-24T17:17:22.153Z,20.64
2022-09-24T17:19:23.531Z,20.80
2022-09-24T17:21:24.871Z,20.88
2022-09-24T17:23:26.173Z,20.97
2022-09-24T17:25:28.238Z,20.98
2022-09-24T17:27:29.560Z,21.04
2022-09-24T17:29:31.880Z,21.10
2022-09-24T17:31:33.996Z,21.15
2022-09-24T17:33:44.050Z,21.16
2022-09-24T17:35:46.780Z,21.19
2022-09-24T17:37:48.255Z,21.24
2022-09-24T17:39:49.526Z,21.33
2022-09-24T17:41:50.890Z,21.37
2022-09-24T17:43:52.204Z,21.38
2022-09-24T17:45:53.598Z,21.38
2022-09-24T17:47:58.140Z,21.10
2022-09-24T17:50:00.030Z,20.96
2022-09-24T17:52:02.276Z,21.09
2022-09-24T17:54:03.633Z,21.16
2022-09-24T17:56:05.032Z,21.18
2022-09-24T17:58:06.301Z,21.20
2022-09-24T18:00:07.655Z,21.21
2022-09-24T18:02:09.073Z,21.25
2022-09-24T18:04:10.437Z,21.28
2022-09-24T18:06:11.763Z,21.29
2022-09-24T18:08:13.050Z,21.30
2022-09-24T18:10:17.329Z,21.33
2022-09-24T18:12:18.660Z,21.33
2022-09-24T18:14:20.007Z,21.13
2022-09-24T18:16:21.363Z,21.24
2022-09-24T18:18:22.736Z,21.43
2022-09-24T18:20:24.308Z,21.86
2022-09-24T18:22:25.872Z,22.15
2022-09-24T18:24:27.217Z,21.83
2022-09-24T18:26:29.365Z,21.11
2022-09-24T18:28:30.690Z,21.06
2022-09-24T18:30:32.341Z,21.39
2022-09-24T18:32:34.680Z,21.35
2022-09-24T18:34:36.006Z,21.34
2022-09-24T18:36:37.279Z,21.34
2022-09-24T18:38:38.550Z,21.35
2022-09-24T18:40:39.912Z,21.35
2022-09-24T18:42:41.300Z,21.36
2022-09-24T18:44:42.645Z,21.40
2022-09-24T18:46:45.526Z,21.41
2022-09-24T18:48:47.271Z,21.41
2022-09-24T18:50:48.561Z,21.24
2022-09-24T18:52:50.460Z,21.18
2022-09-24T18:54:51.795Z,21.31
2022-09-24T18:56:53.525Z,21.38
2022-09-24T18:58:54.810Z,21.40
2022-09-24T19:00:56.312Z,21.44
2022-09-24T19:02:57.727Z,21.50
2022-09-24T19:04:59.076Z,21.54
2022-09-24T19:07:00.708Z,21.58
2022-09-24T19:09:02.050Z,21.58
2022-09-24T19:11:04.780Z,21.57
2022-09-24T19:13:06.559Z,21.61
2022-09-24T19:15:07.899Z,21.58
2022-09-24T19:17:09.206Z,21.56
2022-09-24T19:19:11.354Z,21.58
2022-09-24T19:21:15.845Z,21.60
2022-09-24T19:23:17.164Z,21.62
2022-09-24T19:25:18.448Z,21.63
2022-09-24T19:27:19.773Z,21.62
2022-09-24T19:29:21.085Z,21.65
2022-09-24T19:31:22.497Z,21.42
2022-09-24T19:33:23.907Z,21.17
2022-09-24T19:35:25.975Z,21.18
2022-09-24T19:37:29.108Z,21.31
2022-09-24T19:39:30.441Z,21.38
2022-09-24T19:41:31.728Z,21.45
2022-09-24T19:43:33.590Z,21.45
2022-09-24T19:45:37.247Z,21.47
2022-09-24T19:47:38.516Z,21.49
2022-09-24T19:49:39.790Z,21.49
2022-09-24T19:51:41.837Z,21.54
2022-09-24T19:53:43.107Z,21.52
2022-09-24T19:55:44.458Z,21.52
2022-09-24T19:57:45.738Z,21.61
2022-09-24T19:59:47.384Z,21.69
2022-09-24T20:01:48.747Z,21.70
2022-09-24T20:03:50.183Z,21.73
2022-09-24T20:05:51.500Z,21.73
2022-09-24T20:07:52.772Z,21.73
2022-09-24T20:09:54.216Z,21.73
2022-09-24T20:11:55.508Z,21.73
2022-09-24T20:13:57.119Z,21.41
2022-09-24T20:15:58.528Z,21.19
2022-09-24T20:17:59.846Z,21.18
2022-09-24T20:20:01.165Z,21.39
2022-09-24T20:22:02.473Z,21.51
2022-09-24T20:24:04.165Z,21.57
2022-09-24T20:26:24.311Z,21.55
2022-09-24T20:28:26.879Z,21.55
2022-09-24T20:30:28.168Z,21.59
2022-09-24T20:32:29.910Z,21.58
2022-09-24T20:34:34.178Z,21.58
2022-09-24T20:36:35.579Z,21.52
2022-09-24T20:38:38.048Z,21.46
2022-09-24T20:40:39.384Z,21.47
2022-09-24T20:42:40.727Z,21.48
2022-09-24T20:44:42.003Z,21.47
2022-09-24T20:46:43.387Z,21.77
2022-09-24T20:48:44.771Z,21.62
2022-09-24T20:50:46.187Z,21.51
2022-09-24T20:52:47.502Z,21.48
2022-09-24T20:54:48.782Z,21.48
2022-09-24T20:56:50.106Z,21.50
2022-09-24T20:58:51.439Z,21.25
2022-09-24T21:00:54.701Z,21.15
2022-09-24T21:02:56.284Z,21.26
2022-09-24T21:04:57.683Z,21.33
2022-09-24T21:06:59.075Z,21.40
2022-09-24T21:09:00.432Z,21.41
2022-09-24T21:11:01.756Z,21.47
2022-09-24T21:13:03.035Z,21.60
2022-09-24T21:15:04.309Z,21.49
2022-09-24T21:17:05.620Z,21.32
2022-09-24T21:19:07.989Z,21.19
2022-09-24T21:21:11.251Z,21.07
2022-09-24T21:23:13.570Z,20.99
2022-09-24T21:25:30.389Z,20.93
2022-09-24T21:27:36.138Z,20.90
2022-09-24T21:29:37.405Z,20.88
2022-09-24T21:31:38.732Z,20.86
2022-09-24T21:33:39.999Z,20.83
2022-09-24T21:35:41.272Z,20.81
2022-09-24T21:37:42.566Z,20.79
2022-09-24T21:39:45.209Z,20.77
2022-09-24T21:41:48.120Z,20.74
2022-09-24T21:43:49.471Z,20.72
2022-09-24T21:45:52.453Z,20.69
2022-09-24T21:47:54.966Z,20.68
2022-09-24T21:49:56.553Z,20.67
2022-09-24T21:51:57.968Z,20.64
2022-09-24T21:53:59.537Z,20.61
2022-09-24T21:56:00.806Z,20.60
2022-09-24T21:58:02.132Z,20.58
2022-09-24T22:00:10.109Z,20.55
2022-09-24T22:02:12.203Z,20.55
2022-09-24T22:04:13.779Z,20.52
2022-09-24T22:06:15.107Z,20.51
2022-09-24T22:08:19.963Z,20.51
2022-09-24T22:10:21.295Z,20.47
2022-09-24T22:12:22.590Z,20.45
2022-09-24T22:14:23.907Z,20.45
2022-09-24T22:16:25.252Z,20.45
2022-09-24T22:18:27.227Z,20.48
2022-09-24T22:20:28.567Z,20.48
2022-09-24T22:22:29.839Z,20.49
2022-09-24T22:24:31.124Z,20.46
2022-09-24T22:26:32.408Z,20.47
2022-09-24T22:28:33.707Z,20.48
2022-09-24T22:30:35.081Z,20.46
2022-09-24T22:32:36.451Z,20.46
2022-09-24T22:34:56.307Z,20.45
2022-09-24T22:36:57.618Z,20.44
2022-09-24T22:38:59.519Z,20.42
2022-09-24T22:41:00.899Z,20.42
2022-09-24T22:43:02.198Z,20.41
2022-09-24T22:45:03.538Z,20.40
2022-09-24T22:47:04.828Z,20.38
2022-09-24T22:49:06.119Z,20.38
2022-09-24T22:51:07.423Z,20.37
2022-09-24T22:53:09.868Z,20.37
2022-09-24T22:55:11.148Z,20.36
2022-09-24T22:57:12.423Z,20.34
2022-09-24T22:59:13.723Z,20.33
2022-09-24T23:01:15.256Z,20.32
2022-09-24T23:03:16.687Z,20.29
2022-09-24T23:05:18.129Z,20.30
2022-09-24T23:07:19.480Z,20.29
2022-09-24T23:09:20.862Z,20.29
2022-09-24T23:11:22.175Z,20.25
2022-09-24T23:13:24.652Z,20.32
2022-09-24T23:15:26.721Z,20.35
2022-09-24T23:17:28.081Z,20.35
2022-09-24T23:19:48.543Z,20.35
2022-09-24T23:21:49.841Z,20.34
2022-09-24T23:23:51.152Z,20.34
2022-09-24T23:25:53.003Z,20.33
2022-09-24T23:27:54.295Z,20.32
2022-09-24T23:29:56.660Z,20.32
2022-09-24T23:31:57.939Z,20.30
2022-09-24T23:33:59.215Z,20.31
2022-09-24T23:36:00.533Z,20.33
2022-09-24T23:38:01.814Z,20.34
2022-09-24T23:40:03.100Z,20.34
2022-09-24T23:42:04.640Z,20.31
2022-09-24T23:44:05.985Z,20.30
2022-09-24T23:46:07.415Z,20.29
2022-09-24T23:48:08.807Z,20.31
2022-09-24T23:50:10.067Z,20.32
2022-09-24T23:52:11.343Z,20.33
2022-09-24T23:54:12.701Z,20.35
2022-09-24T23:56:14.058Z,20.34
2022-09-24T23:58:15.323Z,20.34
